METAR Data
IDs: Format: Raw Decoded Include TAF

Data at: 1104 UTC 18 Jan 2022

K0CO 181055Z AUTO 31021G31KT SCT110 M08/M17 A2998 RMK AO2 PWINO
K0CO 181035Z AUTO 31017G30KT CLR M08/M17 A2998 RMK AO2 PWINO
K0CO 181015Z AUTO 31022G30KT CLR M08/M17 A2998 RMK AO2 PWINO
K0CO 180955Z AUTO 31021G30KT CLR M07/M17 A2999 RMK AO2 PWINO
K0CO 180935Z AUTO 31020G32KT M07/M17 A3000 RMK AO2 SKY OBSCURED PWINO
K0CO 180915Z AUTO 30021G31KT CLR M07/M18 A3000 RMK AO2 PWINO
K0CO 180855Z AUTO 31019G30KT CLR M07/M18 A3001 RMK AO2 PWINO
K0CO 180835Z AUTO 31020G26KT CLR M08/M18 A3001 RMK AO2 PWINO
K0CO 180815Z AUTO 31018G26KT CLR M08/M18 A3001 RMK AO2 PWINO
K0CO 180755Z AUTO 31018G27KT CLR M08/M18 A3002 RMK AO2 PWINO
K0CO 180735Z AUTO 31018G26KT CLR M07/M18 A3003 RMK AO2 PWINO
K0CO 180715Z AUTO 31019G23KT CLR M07/M18 A3004 RMK AO2 PWINO
K0CO 180655Z AUTO 31020G26KT CLR M07/M18 A3005 RMK AO2 PWINO
K0CO 180635Z AUTO 31018KT CLR M08/M17 A3006 RMK AO2 PWINO
K0CO 180615Z AUTO 32013G20KT CLR M08/M18 A3007 RMK AO2 PWINO
K0CO 180555Z AUTO 34016G21KT CLR M08/M18 A3007 RMK AO2 PWINO
K0CO 180535Z AUTO 34015G24KT SCT120 M08/M18 A3007 RMK AO2 PWINO
K0CO 180515Z AUTO 34014G19KT 331V031 OVC120 M08/M17 A3008 RMK AO2 PWINO
K0CO 180455Z AUTO 32014G23KT OVC110 M07/M17 A3009 RMK AO2 PWINO
K0CO 180435Z AUTO 31019KT OVC110 M07/M17 A3009 RMK AO2 PWINO
K0CO 180415Z AUTO 31017G22KT BKN120 M06/M16 A3010 RMK AO2 PWINO
K0CO 180355Z AUTO 31018G21KT SCT120 M07/M17 A3011 RMK AO2 PWINO
K0CO 180335Z AUTO 31016G20KT CLR M07/M17 A3011 RMK AO2 PWINO
K0CO 180315Z AUTO 32014KT CLR M07/M17 A3012 RMK AO2 PWINO
K0CO 180255Z AUTO 32013KT CLR M08/M18 A3012 RMK AO2 PWINO
K0CO 180235Z AUTO 32012KT CLR M08/M18 A3012 RMK AO2 PWINO
K0CO 180215Z AUTO 34013KT CLR M08/M18 A3012 RMK AO2 PWINO
K0CO 180155Z AUTO 34014KT CLR M08/M19 A3011 RMK AO2 PWINO
K0CO 180135Z AUTO 34014KT CLR M08/M19 A3011 RMK AO2 PWINO
K0CO 180115Z AUTO 33015KT CLR M08/M19 A3011 RMK AO2 PWINO
K0CO 180055Z AUTO 34015KT CLR M08/M18 A3010 RMK AO2 PWINO
K0CO 180035Z AUTO 32018KT CLR M08/M17 A3009 RMK AO2 PWINO
K0CO 180015Z AUTO 32017KT CLR M08/M18 A3009 RMK AO2 PWINO
K0CO 172355Z AUTO 31020KT CLR M07/M17 A3009 RMK AO2 PWINO
K0CO 172335Z AUTO 32018KT CLR M07/M18 A3009 RMK AO2 PWINO
K0CO 172315Z AUTO 32020G24KT CLR M07/M18 A3009 RMK AO2 PWINO
K0CO 172255Z AUTO 32020KT CLR M06/M17 A3009 RMK AO2 PWINO
K0CO 172235Z AUTO 32018KT CLR M06/M18 A3011 RMK AO2 PWINO
K0CO 172215Z AUTO 32019KT CLR M05/M16 A3011 RMK AO2 PWINO
K0CO 172155Z AUTO 32017G26KT CLR M05/M17 A3011 RMK AO2 PWINO
K0CO 172135Z AUTO 31018G23KT CLR M05/M17 A3012 RMK AO2 PWINO
K0CO 172115Z AUTO 33015G21KT 301V001 CLR M05/M17 A3012 RMK AO2 PWINO
K0CO 172055Z AUTO 30006G16KT CLR M06/M17 A3012 RMK AO2 PWINO
K0CO 172035Z AUTO 34011G16KT CLR M06/M17 A3013 RMK AO2 PWINO
K0CO 172015Z AUTO 32007G16KT CLR M05/M17 A3013 RMK AO2 PWINO
K0CO 171955Z AUTO 32011G22KT CLR M05/M16 A3017 RMK AO2 PWINO
K0CO 171935Z AUTO 33009G20KT 271V131 CLR M05/M16 A3017 RMK AO2 PWINO
K0CO 171915Z AUTO 32009G24KT CLR M04/M16 A3017 RMK AO2 PWINO
K0CO 171855Z AUTO 34015G22KT CLR M04/M16 A3019 RMK AO2 PWINO
K0CO 171835Z AUTO 32015G23KT CLR M05/M16 A3019 RMK AO2 PWINO
K0CO 171815Z AUTO 33012G22KT CLR M05/M16 A3022 RMK AO2 PWINO
K0CO 171755Z AUTO 31014G24KT CLR M05/M17 A3020 RMK AO2 PWINO
K0CO 171735Z AUTO 31011G21KT CLR M05/M17 A3022 RMK AO2 PWINO
K0CO 171715Z AUTO 33008G16KT 291V351 CLR M05/M18 A3022 RMK AO2 PWINO
K0CO 171655Z AUTO 33010G17KT CLR M06/M18 A3021 RMK AO2 PWINO
K0CO 171635Z AUTO 31010G17KT CLR M06/M18 A3020 RMK AO2 PWINO
K0CO 171615Z AUTO 29011G21KT CLR M07/M18 A3020 RMK AO2 PWINO
K0CO 171555Z AUTO 30012G21KT CLR M06/M18 A3019 RMK AO2 PWINO
K0CO 171535Z AUTO 31014G24KT CLR M06/M18 A3019 RMK AO2 PWINO
K0CO 171515Z AUTO 30015G24KT CLR M06/M18 A3019 RMK AO2 PWINO
K0CO 171455Z AUTO 29021G26KT CLR M07/M19 A3018 RMK AO2 PWINO
K0CO 171435Z AUTO 30017G22KT CLR M07/M19 A3017 RMK AO2 PWINO
K0CO 171415Z AUTO 29021G30KT CLR M07/M18 A3016 RMK AO2 PWINO
K0CO 171355Z AUTO 31016G22KT CLR M07/M18 A3017 RMK AO2 PWINO
K0CO 171335Z AUTO 31020G25KT CLR M07/M18 A3016 RMK AO2 PWINO
K0CO 171315Z AUTO 30019G34KT CLR M06/M18 A3017 RMK AO2 PWINO
K0CO 171255Z AUTO 30028G33KT CLR M07/M18 A3015 RMK AO2 PWINO
K0CO 171235Z AUTO 30024G33KT CLR M07/M18 A3017 RMK AO2 PWINO
K0CO 171215Z AUTO 30029G38KT CLR M07/M18 A3016 RMK AO2 PWINO
K0CO 171155Z AUTO 30030G39KT CLR M07/M18 A3015 RMK AO2 PWINO
K0CO 171135Z AUTO 30029G40KT CLR M07/M18 A3015 RMK AO2 PWINO
K0CO 171115Z AUTO 30032G41KT CLR M07/M18 A3014 RMK AO2 PWINO
K0CO 171055Z AUTO 30032G37KT CLR M07/M18 A3015 RMK AO2 PWINO
K0CO 171035Z AUTO 30032G37KT CLR M07/M18 A3015 RMK AO2 PWINO
K0CO 171015Z AUTO 30034G40KT CLR M08/M17 A3016 RMK AO2 PWINO
K0CO 170955Z AUTO 30031G40KT CLR M08/M17 A3017 RMK AO2 PWINO
K0CO 170935Z AUTO 30030G35KT CLR M08/M17 A3017 RMK AO2 PWINO
K0CO 170915Z AUTO 31028G38KT CLR M07/M16 A3018 RMK AO2 PWINO
K0CO 170855Z AUTO 30022G40KT CLR M08/M16 A3019 RMK AO2 PWINO
K0CO 170835Z AUTO 30028G40KT CLR M08/M16 A3019 RMK AO2 PWINO
K0CO 170815Z AUTO 30024G34KT CLR M08/M16 A3019 RMK AO2 PWINO
K0CO 170755Z AUTO 30023G35KT CLR M08/M16 A3019 RMK AO2 PWINO
K0CO 170735Z AUTO 30020G27KT CLR M08/M17 A3020 RMK AO2 PWINO
K0CO 170715Z AUTO 31018G25KT CLR M08/M17 A3020 RMK AO2 PWINO
K0CO 170655Z AUTO 31017G25KT CLR M08/M17 A3020 RMK AO2 PWINO
K0CO 170635Z AUTO 31021G26KT CLR M08/M17 A3020 RMK AO2 PWINO
K0CO 170615Z AUTO 31019G26KT CLR M09/M18 A3020 RMK AO2 PWINO
K0CO 170555Z AUTO 32019G26KT CLR M09/M18 A3020 RMK AO2 PWINO
K0CO 170535Z AUTO 31019KT CLR M08/M18 A3021 RMK AO2 PWINO
K0CO 170515Z AUTO 31018G23KT CLR M09/M19 A3021 RMK AO2 PWINO
K0CO 170455Z AUTO 32018KT CLR M10/M20 A3021 RMK AO2 PWINO
K0CO 170435Z AUTO 33017G29KT CLR M10/M21 A3022 RMK AO2 PWINO
K0CO 170415Z AUTO 32017G26KT CLR M10/M20 A3020 RMK AO2 PWINO
K0CO 170355Z AUTO 32023G30KT CLR M09/M18 A3020 RMK AO2 PWINO
K0CO 170335Z AUTO 32017G30KT CLR M09/M18 A3020 RMK AO2 PWINO
K0CO 170315Z AUTO 32021G28KT CLR M09/M18 A3021 RMK AO2 PWINO
K0CO 170255Z AUTO 33019KT CLR M11/M22 A3022 RMK AO2 PWINO
K0CO 170235Z AUTO 33019G29KT CLR M10/M22 A3022 RMK AO2 PWINO
K0CO 170215Z AUTO 33020G29KT CLR M09/M20 A3022 RMK AO2 PWINO
K0CO 170155Z AUTO 33018G26KT CLR M09/M21 A3022 RMK AO2 PWINO
K0CO 170135Z AUTO 33020G25KT CLR M09/M20 A3022 RMK AO2 PWINO
K0CO 170115Z AUTO 32016G29KT CLR M09/M20 A3021 RMK AO2 PWINO
K0CO 170055Z AUTO 32018G25KT CLR M10/M21 A3020 RMK AO2 PWINO
K0CO 170035Z AUTO 33017KT CLR M10/M21 A3020 RMK AO2 PWINO
K0CO 170015Z AUTO 33019G23KT CLR M10/M21 A3020 RMK AO2 PWINO
K0CO 162355Z AUTO 33020G28KT CLR M10/M21 A3021 RMK AO2 PWINO
K0CO 162335Z AUTO 33019KT CLR M09/M20 A3019 RMK AO2 PWINO
K0CO 162315Z AUTO 34017G28KT CLR M08/M20 A3022 RMK AO2 PWINO